Time;durP1;ratioP1;P1;durP2;ratioP2;P2;SDS_P1;SDS_P2;PMS_P1;PMS_P2;Temp;Humidity;BMP_temperature;BMP_pressure;BME280_temperature;BME280_humidity;BME280_pressure;Samples;Min_cycle;Max_cycle;Signal;HPM_P1;HPM_P2
2021/05/12 00:00:42;;;;;;;2.10;0.75;;;;;;;9.16;90.58;95216.06;5036511;28;20490;-47
2021/05/12 00:03:09;;;;;;;2.03;1.08;;;;;;;9.12;91.59;95215.97;5041221;28;20303;-46
2021/05/12 00:05:36;;;;;;;2.00;1.20;;;;;;;9.20;92.04;95212.38;5043743;28;20057;-47
2021/05/12 00:08:04;;;;;;;1.33;0.90;;;;;;;9.15;92.39;95204.50;5024756;28;20090;-47
2021/05/12 00:10:31;;;;;;;0.85;0.68;;;;;;;9.20;91.78;95206.19;5009658;28;20076;-45
2021/05/12 00:12:58;;;;;;;0.90;0.70;;;;;;;9.10;91.11;95202.81;5011635;28;20042;-47
2021/05/12 00:15:25;;;;;;;0.85;0.70;;;;;;;9.10;90.70;95199.34;5011135;28;20045;-49
2021/05/12 00:17:53;;;;;;;2.35;0.80;;;;;;;9.05;90.80;95205.75;5010524;28;20045;-50
2021/05/12 00:20:28;;;;;;;1.17;0.70;;;;;;;9.08;91.55;95210.47;5011477;28;20058;-46
2021/05/12 00:23:03;;;;;;;1.10;0.60;;;;;;;9.10;90.87;95196.66;5011205;28;20050;-46
2021/05/12 00:25:30;;;;;;;3.70;1.08;;;;;;;9.15;92.14;95209.88;5009988;28;20567;-47
2021/05/12 00:27:58;;;;;;;0.70;0.70;;;;;;;9.07;91.51;95195.41;5010496;28;20522;-46
2021/05/12 00:30:26;;;;;;;0.95;0.70;;;;;;;9.02;91.40;95195.63;5011266;28;20503;-46
2021/05/12 00:32:53;;;;;;;1.00;0.70;;;;;;;9.02;91.45;95198.34;5011125;28;20104;-47
2021/05/12 00:35:21;;;;;;;0.95;0.55;;;;;;;8.99;91.53;95196.31;5011119;28;20077;-49
2021/05/12 00:37:48;;;;;;;1.58;0.68;;;;;;;8.98;91.48;95193.97;5010187;28;20053;-49
2021/05/12 00:40:17;;;;;;;0.82;0.60;;;;;;;8.94;91.54;95179.56;5011456;28;20085;-47
2021/05/12 00:42:45;;;;;;;0.60;0.60;;;;;;;8.94;90.67;95182.25;5011189;28;20422;-47
2021/05/12 00:45:15;;;;;;;0.70;0.60;;;;;;;8.88;90.82;95182.50;5015257;28;20041;-46
2021/05/12 00:47:42;;;;;;;0.68;0.60;;;;;;;8.82;91.46;95185.78;5030193;28;20065;-46
2021/05/12 00:50:10;;;;;;;0.50;0.50;;;;;;;8.80;92.07;95186.09;5012876;28;20108;-47
2021/05/12 00:52:37;;;;;;;0.93;0.57;;;;;;;8.79;91.63;95184.53;5010832;28;20073;-46
2021/05/12 00:55:05;;;;;;;2.50;0.60;;;;;;;8.83;92.16;95187.34;5028031;28;20404;-49
2021/05/12 00:57:33;;;;;;;0.88;0.60;;;;;;;8.80;91.82;95178.00;5028553;28;20083;-50
2021/05/12 01:00:01;;;;;;;0.73;0.47;;;;;;;8.71;91.69;95184.66;5031088;28;20049;-48
2021/05/12 01:02:28;;;;;;;0.85;0.50;;;;;;;8.71;92.14;95168.47;5031031;28;20048;-45
2021/05/12 01:04:55;;;;;;;0.47;0.45;;;;;;;8.67;91.41;95179.13;5029592;28;20042;-47
2021/05/12 01:07:22;;;;;;;0.60;0.60;;;;;;;8.74;92.45;95176.69;5014596;28;20049;-49
2021/05/12 01:09:49;;;;;;;0.47;0.47;;;;;;;8.65;91.54;95167.94;5010802;28;20065;-47
2021/05/12 01:12:16;;;;;;;1.42;0.50;;;;;;;8.65;91.77;95176.81;5009845;28;20054;-46
2021/05/12 01:14:43;;;;;;;1.80;0.60;;;;;;;8.58;91.63;95171.19;5020656;28;20083;-46
2021/05/12 01:17:11;;;;;;;0.68;0.47;;;;;;;8.62;92.20;95172.06;5029727;28;20130;-48
2021/05/12 01:19:39;;;;;;;0.30;0.30;;;;;;;8.58;91.71;95178.47;5030562;28;20429;-47
2021/05/12 01:22:06;;;;;;;0.50;0.40;;;;;;;8.60;91.76;95177.00;5022242;28;20156;-47
2021/05/12 01:24:33;;;;;;;0.55;0.55;;;;;;;8.60;91.16;95179.72;5013885;28;20050;-50
2021/05/12 01:27:00;;;;;;;0.40;0.40;;;;;;;8.62;92.18;95180.16;5014133;28;20419;-44
2021/05/12 01:29:27;;;;;;;0.68;0.40;;;;;;;8.56;91.36;95180.72;5031831;28;20084;-44
2021/05/12 01:31:55;;;;;;;0.30;0.30;;;;;;;8.53;92.65;95190.28;5033935;28;20053;-47
2021/05/12 01:34:22;;;;;;;0.43;0.40;;;;;;;8.52;92.16;95194.09;5033155;28;20462;-47
2021/05/12 01:36:51;;;;;;;0.52;0.50;;;;;;;8.55;92.13;95193.44;5032650;28;20069;-49
2021/05/12 01:39:19;;;;;;;0.30;0.30;;;;;;;8.59;91.83;95199.72;5014527;28;20100;-46
2021/05/12 01:41:47;;;;;;;0.50;0.50;;;;;;;8.55;92.10;95193.44;5014427;28;20053;-45
2021/05/12 01:44:14;;;;;;;0.95;0.50;;;;;;;8.56;92.63;95197.69;5014249;28;20169;-48
2021/05/12 01:46:45;;;;;;;0.50;0.40;;;;;;;8.51;91.80;95197.13;5029896;28;20505;-49
2021/05/12 01:49:13;;;;;;;2.17;0.50;;;;;;;8.51;92.01;95200.59;5034101;28;20049;-46
2021/05/12 01:51:41;;;;;;;0.55;0.40;;;;;;;8.57;91.92;95195.78;5033768;28;20045;-45
2021/05/12 01:54:09;;;;;;;0.77;0.50;;;;;;;8.48;92.01;95195.09;5026693;28;20054;-46
2021/05/12 01:56:38;;;;;;;1.38;0.50;;;;;;;8.48;92.11;95195.88;5014170;28;20057;-47
2021/05/12 01:59:07;;;;;;;1.67;0.40;;;;;;;8.45;92.40;95201.97;5013568;28;20062;-46
2021/05/12 02:01:42;;;;;;;0.70;0.60;;;;;;;8.48;92.68;95206.66;5012789;28;20053;-47
2021/05/12 02:04:09;;;;;;;0.38;0.38;;;;;;;8.48;92.87;95203.19;5013669;28;20096;-45
2021/05/12 02:06:37;;;;;;;0.45;0.40;;;;;;;8.46;92.64;95203.53;5012104;28;20053;-46
2021/05/12 02:09:08;;;;;;;0.73;0.40;;;;;;;8.45;93.48;95201.97;5013842;28;20053;-46
2021/05/12 02:11:38;;;;;;;0.60;0.50;;;;;;;8.53;93.66;95201.06;5013875;28;20057;-47
2021/05/12 02:14:06;;;;;;;0.40;0.40;;;;;;;8.49;93.30;95205.56;5016375;28;20037;-50
2021/05/12 02:16:34;;;;;;;0.40;0.40;;;;;;;8.43;92.61;95198.81;5032345;28;20053;-47
2021/05/12 02:19:01;;;;;;;1.35;0.45;;;;;;;8.42;92.91;95198.03;5033441;28;20395;-48
2021/05/12 02:21:28;;;;;;;0.60;0.50;;;;;;;8.42;93.22;95189.94;5033299;28;20060;-45
2021/05/12 02:23:55;;;;;;;0.40;0.40;;;;;;;8.45;93.33;95183.09;5013493;28;20041;-46
2021/05/12 02:26:22;;;;;;;1.10;0.55;;;;;;;8.45;93.72;95190.38;4995510;28;20503;-44
2021/05/12 02:28:49;;;;;;;1.10;0.40;;;;;;;8.47;93.79;95194.31;5014901;28;20057;-44
2021/05/12 02:31:16;;;;;;;0.63;0.47;;;;;;;8.49;93.15;95191.28;5029555;28;20104;-47
2021/05/12 02:33:43;;;;;;;0.75;0.40;;;;;;;8.45;93.03;95183.09;5032588;28;20045;-44
2021/05/12 02:36:10;;;;;;;0.77;0.60;;;;;;;8.57;93.18;95195.78;5027336;28;20056;-46
2021/05/12 02:38:37;;;;;;;0.43;0.43;;;;;;;8.60;93.29;95187.78;5012371;28;20092;-49
2021/05/12 02:41:05;;;;;;;0.63;0.47;;;;;;;8.50;93.22;95185.56;5012911;28;20069;-46
2021/05/12 02:43:32;;;;;;;0.40;0.40;;;;;;;8.45;93.00;95190.38;5012896;28;20041;-47
2021/05/12 02:45:59;;;;;;;1.52;0.52;;;;;;;8.52;94.38;95188.72;5024660;28;20539;-45
2021/05/12 02:48:26;;;;;;;0.50;0.50;;;;;;;8.53;93.33;95189.50;5031899;28;20045;-48
2021/05/12 02:50:53;;;;;;;1.55;0.47;;;;;;;8.46;94.03;95189.28;5032385;28;20057;-46
2021/05/12 02:53:21;;;;;;;0.80;0.50;;;;;;;8.49;93.38;95183.22;5020048;28;20125;-44
2021/05/12 02:55:48;;;;;;;0.40;0.40;;;;;;;8.42;92.91;95187.25;5012746;28;20058;-46
2021/05/12 02:58:16;;;;;;;0.38;0.38;;;;;;;8.39;93.38;95200.63;5011920;28;20419;-45
2021/05/12 03:00:43;;;;;;;0.43;0.43;;;;;;;8.41;93.61;95198.34;5012695;28;20184;-45
2021/05/12 03:03:11;;;;;;;0.68;0.40;;;;;;;8.34;93.50;95203.47;5013010;28;20046;-45
2021/05/12 03:05:39;;;;;;;1.27;0.52;;;;;;;8.35;93.79;95205.06;5014691;28;20050;-44
2021/05/12 03:08:07;;;;;;;1.25;0.60;;;;;;;8.34;93.82;95208.88;5030469;28;20050;-45
2021/05/12 03:10:36;;;;;;;0.50;0.50;;;;;;;8.37;93.61;95200.13;5032190;28;20566;-45
2021/05/12 03:13:05;;;;;;;0.32;0.32;;;;;;;8.41;93.79;95204.53;5032518;28;20047;-45
2021/05/12 03:15:33;;;;;;;0.70;0.40;;;;;;;8.41;92.98;95196.44;5011617;28;20080;-46
2021/05/12 03:18:01;;;;;;;0.60;0.40;;;;;;;8.41;93.36;95198.34;5011758;28;20139;-48
2021/05/12 03:20:29;;;;;;;0.52;0.40;;;;;;;8.48;93.51;95190.47;5012678;28;20053;-46
2021/05/12 03:22:57;;;;;;;2.47;0.40;;;;;;;8.45;93.64;95185.78;5017356;28;20045;-48
2021/05/12 03:25:24;;;;;;;0.50;0.50;;;;;;;8.44;93.56;95192.28;5032235;28;20057;-47
2021/05/12 03:27:52;;;;;;;0.30;0.30;;;;;;;8.44;93.44;95194.97;5026131;28;20065;-46
2021/05/12 03:30:26;;;;;;;0.50;0.40;;;;;;;8.50;94.01;95199.03;5012237;28;20081;-46
2021/05/12 03:32:54;;;;;;;0.75;0.40;;;;;;;8.46;93.92;95198.13;5012394;28;20124;-45
2021/05/12 03:35:21;;;;;;;0.98;0.40;;;;;;;8.54;94.18;95199.94;5012266;28;20046;-46
2021/05/12 03:37:48;;;;;;;0.98;0.47;;;;;;;8.49;92.94;95189.38;5011132;28;20046;-45
2021/05/12 03:40:17;;;;;;;1.73;0.50;;;;;;;8.47;92.88;95198.91;5012294;28;20054;-45
2021/05/12 03:42:45;;;;;;;0.68;0.20;;;;;;;8.35;93.11;95203.16;5012180;28;20419;-47
2021/05/12 03:45:12;;;;;;;0.63;0.38;;;;;;;8.37;93.53;95211.69;5014941;28;20054;-45
2021/05/12 03:47:46;;;;;;;0.40;0.40;;;;;;;8.37;93.88;95205.50;5030653;28;20082;-46
2021/05/12 03:50:14;;;;;;;0.35;0.35;;;;;;;8.42;93.78;95199.94;5031698;28;20422;-46
2021/05/12 03:52:41;;;;;;;0.80;0.50;;;;;;;8.34;93.50;95206.97;5031825;28;20061;-46
2021/05/12 03:55:09;;;;;;;1.30;0.30;;;;;;;8.39;94.04;95206.78;5020204;28;20112;-48
2021/05/12 03:57:36;;;;;;;1.40;0.30;;;;;;;8.36;93.55;95212.81;5013027;28;20046;-47
2021/05/12 04:00:05;;;;;;;0.32;0.30;;;;;;;8.41;93.44;95214.53;5031656;28;20053;-48
2021/05/12 04:02:40;;;;;;;0.20;0.20;;;;;;;8.32;93.51;95211.91;5030439;28;20140;-45
2021/05/12 04:05:09;;;;;;;1.73;0.30;;;;;;;8.31;93.82;95210.31;5031142;28;20482;-46
2021/05/12 04:07:36;;;;;;;0.55;0.30;;;;;;;8.31;93.44;95218.41;5014269;28;20064;-48
2021/05/12 04:10:05;;;;;;;0.30;0.30;;;;;;;8.30;93.68;95216.84;5011441;28;20053;-47
2021/05/12 04:12:32;;;;;;;0.85;0.40;;;;;;;8.32;93.67;95220.00;5011401;28;20049;-47
2021/05/12 04:14:59;;;;;;;0.63;0.40;;;;;;;8.33;93.30;95213.47;5011337;28;20474;-49
2021/05/12 04:17:27;;;;;;;0.45;0.32;;;;;;;8.27;93.39;95220.22;5026858;28;20501;-48
2021/05/12 04:19:54;;;;;;;0.60;0.30;;;;;;;8.24;93.66;95220.09;5029865;28;20147;-47
2021/05/12 04:22:25;;;;;;;0.43;0.40;;;;;;;8.25;93.92;95221.66;5031336;28;20121;-48
2021/05/12 04:24:52;;;;;;;0.30;0.30;;;;;;;8.39;94.56;95216.78;5030628;28;20115;-49
2021/05/12 04:27:19;;;;;;;1.75;0.50;;;;;;;8.29;93.90;95217.19;5013067;28;20062;-47
2021/05/12 04:29:46;;;;;;;0.55;0.32;;;;;;;8.23;93.85;95221.22;5011218;28;20111;-48
2021/05/12 04:32:15;;;;;;;0.65;0.50;;;;;;;8.25;94.55;95218.97;5011000;28;20054;-47
2021/05/12 04:34:42;;;;;;;1.10;0.50;;;;;;;8.24;93.87;95212.00;5010898;28;20077;-46
2021/05/12 04:37:09;;;;;;;2.35;0.52;;;;;;;8.28;94.58;95211.00;5010387;28;20053;-50
2021/05/12 04:39:36;;;;;;;0.80;0.50;;;;;;;8.26;94.45;95217.88;5010780;28;20062;-49
2021/05/12 04:42:03;;;;;;;0.55;0.52;;;;;;;8.28;94.40;95215.59;5011101;28;20058;-46
2021/05/12 04:44:30;;;;;;;0.50;0.50;;;;;;;8.23;93.74;95202.34;4993217;28;20674;-46
2021/05/12 04:46:57;;;;;;;0.73;0.50;;;;;;;8.33;94.22;95208.09;5021593;28;20099;-46
2021/05/12 04:49:24;;;;;;;0.30;0.30;;;;;;;8.28;94.07;95204.81;5030798;28;20423;-49
2021/05/12 04:51:52;;;;;;;1.45;0.57;;;;;;;8.37;94.44;95208.22;5030426;28;20487;-46
2021/05/12 04:54:20;;;;;;;2.42;0.85;;;;;;;8.39;93.50;95208.69;5017827;28;20101;-46
2021/05/12 04:56:48;;;;;;;0.47;0.40;;;;;;;8.39;93.63;95211.41;5010420;28;20107;-48
2021/05/12 04:59:16;;;;;;;0.77;0.60;;;;;;;8.31;94.00;95225.72;5029564;28;20053;-45
2021/05/12 05:01:43;;;;;;;0.80;0.50;;;;;;;8.29;93.97;95217.19;5034863;28;20525;-50
2021/05/12 05:04:12;;;;;;;0.93;0.50;;;;;;;8.37;94.72;95214.38;5033404;28;20443;-45
2021/05/12 05:06:39;;;;;;;1.10;0.47;;;;;;;8.32;93.25;95220.00;5027762;28;20050;-48
2021/05/12 05:09:07;;;;;;;1.17;0.50;;;;;;;8.27;93.71;95216.72;5013746;28;20058;-45
2021/05/12 05:11:34;;;;;;;0.93;0.50;;;;;;;8.35;93.97;95218.53;5015118;28;20079;-46
2021/05/12 05:14:02;;;;;;;0.68;0.50;;;;;;;8.57;94.45;95212.75;5015061;28;20155;-47
2021/05/12 05:16:29;;;;;;;0.40;0.40;;;;;;;8.40;93.82;95207.56;5014152;28;20058;-49
2021/05/12 05:18:56;;;;;;;0.63;0.40;;;;;;;8.35;93.67;95211.25;5015266;28;20128;-48
2021/05/12 05:21:23;;;;;;;0.80;0.50;;;;;;;8.39;94.07;95211.41;5015061;28;20467;-45
2021/05/12 05:23:50;;;;;;;0.65;0.45;;;;;;;8.37;93.27;95213.59;5014937;28;20134;-47
2021/05/12 05:26:17;;;;;;;1.50;0.40;;;;;;;8.38;93.79;95217.88;5013190;28;20085;-48
2021/05/12 05:28:44;;;;;;;1.40;0.40;;;;;;;8.33;93.93;95210.00;5027255;28;20450;-48
2021/05/12 05:31:11;;;;;;;0.88;0.47;;;;;;;8.47;93.67;95212.41;5033232;28;20402;-51
2021/05/12 05:34:01;;;;;;;0.45;0.30;;;;;;;8.48;93.46;95214.75;5032782;28;20053;-47
2021/05/12 05:36:47;;;;;;;1.67;0.75;;;;;;;8.53;94.45;95222.63;5030648;28;20137;-46
2021/05/12 05:39:35;;;;;;;1.17;0.50;;;;;;;8.47;93.70;95215.88;5028515;28;20053;-45
2021/05/12 05:42:21;;;;;;;0.68;0.45;;;;;;;8.57;93.72;95225.44;5014240;28;20097;-46
2021/05/12 05:45:07;;;;;;;4.68;3.13;;;;;;;8.44;93.60;95224.63;5024436;28;20034;-44
2021/05/12 05:47:53;;;;;;;1.75;1.15;;;;;;;8.40;93.50;95227.22;5029039;28;20530;-45
2021/05/12 05:50:38;;;;;;;0.80;0.50;;;;;;;8.39;93.74;95224.88;5033993;28;20527;-46
2021/05/12 05:53:24;;;;;;;4.10;0.60;;;;;;;8.48;95.19;95219.34;5033215;28;20053;-46
2021/05/12 05:56:09;;;;;;;0.80;0.60;;;;;;;8.52;94.71;95226.47;5031432;28;20065;-47
2021/05/12 05:58:55;;;;;;;0.90;0.50;;;;;;;8.40;93.86;95224.53;5019810;28;20042;-45
2021/05/12 06:01:41;;;;;;;2.05;0.47;;;;;;;8.53;94.30;95229.94;5025676;28;20140;-46
2021/05/12 06:04:07;;;;;;;1.40;0.68;;;;;;;8.39;93.88;95235.66;5053719;28;20391;-47
2021/05/12 06:06:56;;;;;;;0.85;0.40;;;;;;;8.41;94.25;95226.09;5041958;28;20052;-45
2021/05/12 06:09:42;;;;;;;0.82;0.45;;;;;;;8.53;94.34;95233.41;5052207;28;20138;-46
2021/05/12 06:12:28;;;;;;;0.88;0.70;;;;;;;8.54;94.01;95226.09;5050993;28;20087;-47
2021/05/12 06:15:18;;;;;;;1.80;0.70;;;;;;;8.56;94.89;95227.34;5016723;28;20049;-46
2021/05/12 06:18:09;;;;;;;0.98;0.60;;;;;;;8.56;94.53;95229.25;5030157;28;20049;-45
2021/05/12 06:20:54;;;;;;;1.23;0.70;;;;;;;8.61;94.36;95232.53;5028941;28;20141;-47
2021/05/12 06:23:40;;;;;;;2.05;0.80;;;;;;;8.69;94.15;95236.22;5019481;28;20105;-47
2021/05/12 06:26:26;;;;;;;1.33;0.52;;;;;;;8.68;94.19;95236.56;5030471;28;20053;-46
2021/05/12 06:29:12;;;;;;;1.00;0.68;;;;;;;8.73;93.89;95239.03;5034798;28;20048;-45
2021/05/12 06:31:57;;;;;;;0.75;0.60;;;;;;;8.77;94.31;95226.44;5036506;28;20083;-45
2021/05/12 06:34:43;;;;;;;2.08;0.70;;;;;;;8.74;94.63;95232.50;5046326;28;20071;-49
2021/05/12 06:37:31;;;;;;;2.30;0.80;;;;;;;8.73;94.97;95228.25;5023447;28;20040;-46
2021/05/12 06:40:16;;;;;;;0.88;0.60;;;;;;;8.81;94.76;95238.16;5041307;28;20049;-45
2021/05/12 06:42:44;;;;;;;2.20;0.70;;;;;;;8.91;94.92;95237.69;5050147;28;20120;-46
2021/05/12 06:45:12;;;;;;;1.13;0.60;;;;;;;8.76;94.03;95233.75;5035811;28;20481;-46
2021/05/12 06:47:41;;;;;;;2.28;0.70;;;;;;;8.84;94.41;95226.69;5029646;28;20155;-44
2021/05/12 06:50:09;;;;;;;1.80;0.80;;;;;;;8.89;94.60;95223.75;5032469;28;20539;-46
2021/05/12 06:52:36;;;;;;;0.88;0.88;;;;;;;8.89;94.63;95229.94;5050227;28;20128;-46
2021/05/12 06:55:04;;;;;;;2.10;1.15;;;;;;;9.04;94.01;95233.09;5032462;28;20431;-46
2021/05/12 06:57:31;;;;;;;1.75;0.80;;;;;;;9.01;94.06;95231.06;5030763;28;20052;-47
2021/05/12 06:59:58;;;;;;;6.47;1.73;;;;;;;9.10;94.78;95232.50;5027410;28;20068;-46
2021/05/12 07:02:42;;;;;;;1.88;1.00;;;;;;;9.19;93.90;95229.66;5026539;28;20053;-47
2021/05/12 07:05:14;;;;;;;1.70;1.20;;;;;;;9.27;93.31;95234.16;5012794;28;20485;-45
2021/05/12 07:07:44;;;;;;;2.53;1.30;;;;;;;9.15;94.11;95238.78;5046698;28;20132;-45
2021/05/12 07:10:12;;;;;;;2.10;1.10;;;;;;;9.25;93.68;95235.63;5037338;28;20068;-45
2021/05/12 07:12:40;;;;;;;2.63;1.30;;;;;;;9.26;93.51;95229.09;5039314;28;20049;-50
2021/05/12 07:15:10;;;;;;;2.78;1.45;;;;;;;9.41;93.69;95225.69;5021186;28;20045;-47
2021/05/12 07:17:37;;;;;;;1.70;1.20;;;;;;;9.21;93.85;95215.84;5021672;28;20045;-50
2021/05/12 07:20:05;;;;;;;2.00;1.45;;;;;;;9.51;94.25;95222.50;5029678;28;20056;-45
2021/05/12 07:22:32;;;;;;;2.38;1.60;;;;;;;9.43;93.51;95228.06;5029850;28;20197;-45
2021/05/12 07:25:00;;;;;;;3.17;1.52;;;;;;;9.34;94.19;95228.19;5031235;28;20107;-41
2021/05/12 07:27:28;;;;;;;4.32;1.60;;;;;;;9.21;94.27;95234.75;5025510;28;20053;-44
2021/05/12 07:29:56;;;;;;;4.57;1.65;;;;;;;9.43;93.95;95231.56;5030624;28;20096;-43
2021/05/12 07:32:23;;;;;;;2.60;1.90;;;;;;;9.39;93.73;95235.25;5029498;28;20057;-41
2021/05/12 07:34:53;;;;;;;2.83;1.67;;;;;;;9.57;93.17;95228.47;5031000;28;20486;-45
2021/05/12 07:37:21;;;;;;;3.22;1.60;;;;;;;9.45;93.53;95221.19;5030101;28;20080;-40
2021/05/12 07:39:48;;;;;;;3.50;2.05;;;;;;;9.42;93.75;95219.16;5029728;28;20151;-43
2021/05/12 07:42:17;;;;;;;3.13;1.75;;;;;;;9.34;93.64;95226.28;5031125;28;20088;-46
2021/05/12 07:44:46;;;;;;;2.53;1.77;;;;;;;9.36;93.94;95225.94;5027776;28;20053;-44
2021/05/12 07:47:14;;;;;;;1.95;1.55;;;;;;;9.28;93.41;95218.75;5034296;28;20049;-44
2021/05/12 07:49:42;;;;;;;3.65;1.77;;;;;;;9.21;93.79;95215.84;5041866;28;20048;-43
2021/05/12 07:52:14;;;;;;;2.10;1.45;;;;;;;9.30;93.75;95228.09;5032631;28;20437;-45
2021/05/12 07:54:44;;;;;;;3.92;1.67;;;;;;;9.15;93.41;95214.50;5029575;28;20532;-44
2021/05/12 07:57:12;;;;;;;2.65;1.83;;;;;;;9.38;93.58;95223.69;5035129;28;20065;-45
2021/05/12 07:59:39;;;;;;;2.78;1.63;;;;;;;9.25;93.41;95214.81;5026818;28;20068;-44
2021/05/12 08:02:06;;;;;;;5.40;2.03;;;;;;;9.48;93.37;95212.38;5028649;28;20124;-42
2021/05/12 08:04:34;;;;;;;3.08;1.70;;;;;;;9.28;93.16;95218.75;5033488;28;20491;-44
2021/05/12 08:07:01;;;;;;;2.85;1.60;;;;;;;9.26;93.48;95223.69;5034931;28;20418;-47
2021/05/12 08:09:29;;;;;;;2.05;1.50;;;;;;;9.28;92.85;95222.22;5028026;28;20093;-46
2021/05/12 08:11:56;;;;;;;2.20;1.70;;;;;;;9.19;92.74;95226.19;5030924;28;20056;-45
2021/05/12 08:14:23;;;;;;;2.40;1.50;;;;;;;9.23;93.10;95216.28;5031086;28;20084;-44
2021/05/12 08:16:50;;;;;;;2.58;1.73;;;;;;;9.25;93.03;95224.84;5031536;28;20097;-44
2021/05/12 08:19:18;;;;;;;2.38;1.58;;;;;;;9.46;92.68;95227.38;5027735;28;20475;-44
2021/05/12 08:21:49;;;;;;;2.92;1.98;;;;;;;9.31;92.62;95231.56;5032636;28;20056;-45
2021/05/12 08:24:16;;;;;;;1.90;1.40;;;;;;;9.30;92.20;95221.91;5029342;28;20073;-45
2021/05/12 08:26:43;;;;;;;2.45;1.60;;;;;;;9.49;92.94;95224.78;5030628;28;20536;-46
2021/05/12 08:29:11;;;;;;;4.90;1.52;;;;;;;9.47;91.77;95227.03;5019830;28;20507;-45
2021/05/12 08:31:40;;;;;;;3.90;1.60;;;;;;;9.38;92.99;95220.19;5027680;28;20049;-47
2021/05/12 08:34:07;;;;;;;2.35;1.85;;;;;;;9.57;92.74;95221.16;5029859;28;20159;-44
2021/05/12 08:36:34;;;;;;;2.53;1.80;;;;;;;9.54;93.19;95221.81;5030003;28;20045;-46
2021/05/12 08:39:05;;;;;;;2.40;1.98;;;;;;;9.59;93.37;95228.91;5027458;28;20148;-45
2021/05/12 08:41:35;;;;;;;3.97;1.98;;;;;;;9.69;92.79;95219.53;5026933;28;20058;-44
2021/05/12 08:44:05;;;;;;;3.78;1.98;;;;;;;9.63;92.59;95218.22;5032261;28;20061;-41
2021/05/12 08:46:34;;;;;;;2.58;1.95;;;;;;;9.74;92.59;95211.19;5029420;28;20041;-47
2021/05/12 08:49:03;;;;;;;4.07;2.20;;;;;;;9.42;92.96;95216.47;5041361;28;20041;-44
2021/05/12 08:51:31;;;;;;;4.40;1.88;;;;;;;9.36;93.11;95209.75;5042487;28;20051;-43
2021/05/12 08:53:58;;;;;;;4.95;2.42;;;;;;;9.33;93.99;95205.03;5034272;28;20068;-46
2021/05/12 08:56:25;;;;;;;3.15;2.17;;;;;;;9.32;93.38;95214.25;5037225;28;20115;-48
2021/05/12 08:58:59;;;;;;;2.95;2.10;;;;;;;9.42;93.97;95208.34;5032479;28;20059;-41
2021/05/12 09:01:26;;;;;;;3.95;2.55;;;;;;;9.47;93.58;95207.34;5030274;28;20099;-42
2021/05/12 09:03:54;;;;;;;6.43;2.90;;;;;;;9.33;94.02;95213.13;5037780;28;20153;-44
2021/05/12 09:06:22;;;;;;;4.90;2.50;;;;;;;9.27;93.72;95214.50;5030846;28;20134;-47
2021/05/12 09:08:50;;;;;;;4.30;2.75;;;;;;;9.42;94.16;95205.66;5032644;28;20057;-44
2021/05/12 09:11:18;;;;;;;5.18;2.67;;;;;;;9.57;93.15;95215.75;5030728;28;20111;-45
2021/05/12 09:13:47;;;;;;;3.92;2.85;;;;;;;9.36;93.65;95207.84;5027070;28;20065;-47
2021/05/12 09:16:23;;;;;;;3.42;2.45;;;;;;;9.29;93.36;95212.22;5022619;28;20038;-47
2021/05/12 09:19:04;;;;;;;4.55;2.80;;;;;;;9.23;93.63;95218.97;5030180;28;20052;-48
2021/05/12 09:21:46;;;;;;;4.30;3.03;;;;;;;9.20;94.28;95206.19;5026126;28;20135;-44
2021/05/12 09:24:26;;;;;;;6.05;2.72;;;;;;;9.12;93.46;95214.06;5028756;28;20057;-48
2021/05/12 09:26:55;;;;;;;4.43;3.50;;;;;;;9.16;94.28;95210.66;5029134;28;20100;-51
2021/05/12 09:29:38;;;;;;;4.75;3.17;;;;;;;9.20;93.41;95203.50;5023243;28;20060;-47
2021/05/12 09:32:10;;;;;;;5.07;3.53;;;;;;;9.53;93.81;95209.47;5023533;28;20053;-49
2021/05/12 09:34:53;;;;;;;4.32;3.60;;;;;;;9.14;93.59;95216.44;5032894;28;20698;-48
2021/05/12 09:37:37;;;;;;;3.90;2.90;;;;;;;9.12;94.11;95216.75;5026760;28;20053;-45
2021/05/12 09:40:07;;;;;;;2.35;1.38;;;;;;;8.82;94.08;95228.94;5029711;28;20100;-47
2021/05/12 09:42:36;;;;;;;1.58;1.10;;;;;;;8.77;94.12;95223.75;5029990;28;20132;-45
2021/05/12 09:45:24;;;;;;;1.42;1.00;;;;;;;8.77;93.93;95227.22;5028959;28;20048;-47
2021/05/12 09:47:58;;;;;;;1.60;0.88;;;;;;;8.68;94.26;95217.69;5030590;28;20457;-42
2021/05/12 09:50:32;;;;;;;1.73;0.85;;;;;;;8.84;95.04;95211.28;5027897;28;20081;-46
2021/05/12 09:53:04;;;;;;;1.30;0.80;;;;;;;9.01;93.87;95214.88;5035318;28;20128;-44
2021/05/12 09:55:36;;;;;;;1.33;0.80;;;;;;;8.79;94.58;95216.13;5024265;28;20042;-45
2021/05/12 09:58:11;;;;;;;1.42;1.00;;;;;;;8.94;95.20;95215.44;5026257;28;20053;-46
2021/05/12 10:00:43;;;;;;;2.30;1.10;;;;;;;8.86;94.62;95214.41;5029689;28;20073;-48
2021/05/12 10:03:12;;;;;;;1.25;0.88;;;;;;;8.76;94.43;95211.41;5034628;28;20047;-45
2021/05/12 10:05:56;;;;;;;1.55;0.80;;;;;;;8.81;94.40;95214.66;5034642;28;20453;-45
2021/05/12 10:08:30;;;;;;;1.10;0.90;;;;;;;8.78;94.15;95211.84;5031514;28;20156;-47
2021/05/12 10:11:05;;;;;;;1.17;0.85;;;;;;;8.76;93.91;95214.88;5031646;28;20111;-44
2021/05/12 10:13:35;;;;;;;1.13;0.80;;;;;;;8.91;93.76;95212.63;5041927;28;20060;-49
2021/05/12 10:16:06;;;;;;;1.15;0.80;;;;;;;8.85;93.55;95210.16;5031566;28;20045;-46
2021/05/12 10:18:33;;;;;;;1.30;0.90;;;;;;;8.92;94.71;95209.59;5039234;28;20139;-45
2021/05/12 10:21:16;;;;;;;1.20;0.80;;;;;;;8.89;94.30;95210.25;5031644;28;20111;-49
2021/05/12 10:23:45;;;;;;;1.95;1.00;;;;;;;8.98;94.23;95212.84;5033476;28;20291;-46
2021/05/12 10:26:12;;;;;;;1.45;1.10;;;;;;;8.92;92.91;95214.97;5027459;28;20045;-42
2021/05/12 10:28:40;;;;;;;2.53;1.00;;;;;;;8.86;93.21;95210.94;5026964;28;20438;-50
2021/05/12 10:31:10;;;;;;;1.80;1.00;;;;;;;8.77;94.01;95204.88;5031132;28;20049;-48
2021/05/12 10:33:56;;;;;;;1.20;0.80;;;;;;;8.79;94.10;95210.72;5041919;28;20056;-44
2021/05/12 10:36:24;;;;;;;2.58;1.20;;;;;;;8.88;93.96;95206.00;5030495;28;20640;-46
2021/05/12 10:38:52;;;;;;;3.80;1.10;;;;;;;8.83;93.68;95219.72;5034653;28;20502;-45
2021/05/12 10:41:50;;;;;;;1.70;1.10;;;;;;;8.83;93.86;95211.63;5034255;28;20526;-45
2021/05/12 10:44:41;;;;;;;1.73;1.20;;;;;;;9.03;93.86;95221.47;5031782;28;20046;-45
2021/05/12 10:47:14;;;;;;;1.75;1.40;;;;;;;8.95;94.10;95217.00;5030768;28;20053;-43
2021/05/12 10:49:50;;;;;;;1.88;1.35;;;;;;;8.86;93.76;95224.44;5034371;28;20405;-45
2021/05/12 10:52:18;;;;;;;1.80;1.40;;;;;;;8.98;93.88;95220.94;5025209;28;20550;-47
2021/05/12 10:54:51;;;;;;;16.05;2.28;;;;;;;8.99;93.80;95222.50;5057078;22;20068;-46
2021/05/12 10:57:49;;;;;;;5.33;1.60;;;;;;;9.08;93.85;95218.56;5057262;28;20067;-42
2021/05/12 11:00:19;;;;;;;1.98;1.27;;;;;;;9.02;93.88;95216.44;5071646;28;20052;-43
2021/05/12 11:03:04;;;;;;;1.80;1.40;;;;;;;9.00;93.12;95221.38;5075818;28;20061;-41
2021/05/12 11:06:06;;;;;;;2.35;1.70;;;;;;;9.01;93.64;95209.47;5069485;28;20088;-42
2021/05/12 11:08:34;;;;;;;4.97;1.70;;;;;;;8.95;93.30;95210.84;5007247;28;20056;-43
2021/05/12 11:11:03;;;;;;;3.03;1.40;;;;;;;8.96;92.85;95207.00;5049647;28;20047;-43
2021/05/12 11:13:34;;;;;;;2.72;1.50;;;;;;;9.03;92.97;95205.28;5065088;28;20052;-44
2021/05/12 11:16:04;;;;;;;8.07;1.90;;;;;;;9.11;93.17;95207.09;5060293;28;20518;-45
2021/05/12 11:18:34;;;;;;;12.10;3.33;;;;;;;9.05;92.41;95208.44;5067918;28;20433;-47
2021/05/12 11:21:16;;;;;;;2.90;1.90;;;;;;;8.97;92.92;95200.47;5041317;28;20052;-48
2021/05/12 11:24:15;;;;;;;2.13;1.35;;;;;;;8.98;93.03;95204.75;5060326;28;20445;-45
2021/05/12 11:32:02;;;;;;;4.80;2.40;;;;;;;9.10;93.89;95202.03;5053796;28;20056;-43
2021/05/12 11:34:30;;;;;;;4.60;2.45;;;;;;;9.18;93.65;95203.81;5052610;28;20064;-48
2021/05/12 11:37:14;;;;;;;4.82;2.65;;;;;;;9.26;93.05;95202.09;5037011;28;20061;-44
2021/05/12 11:39:55;;;;;;;8.40;1.92;;;;;;;9.13;93.15;95195.94;5033194;28;20057;-43
2021/05/12 11:42:26;;;;;;;2.67;1.90;;;;;;;9.05;93.06;95194.94;5032946;28;20049;-45
2021/05/12 11:45:09;;;;;;;2.83;1.70;;;;;;;9.03;94.46;95201.81;5032951;28;20060;-45
2021/05/12 11:47:44;;;;;;;2.15;1.35;;;;;;;8.97;93.00;95195.88;5039766;28;20049;-46
2021/05/12 11:50:21;;;;;;;3.25;1.50;;;;;;;8.98;93.16;95213.63;5052560;28;20053;-47
2021/05/12 11:52:48;;;;;;;5.22;1.88;;;;;;;9.01;92.88;95210.25;5052650;28;20056;-44
2021/05/12 11:55:19;;;;;;;2.85;1.80;;;;;;;9.05;92.99;95202.25;5045327;28;20077;-42
2021/05/12 11:57:46;;;;;;;1.85;1.48;;;;;;;9.03;93.04;95205.28;5032419;28;20049;-50
2021/05/12 12:00:35;;;;;;;2.83;1.80;;;;;;;8.98;93.76;95205.53;5033098;28;20056;-45
2021/05/12 12:03:09;;;;;;;4.07;2.00;;;;;;;8.93;92.86;95194.97;5045983;28;20048;-44
2021/05/12 12:05:46;;;;;;;3.03;1.90;;;;;;;8.99;93.10;95199.00;5052270;28;20495;-45